createdAt,value
2022-09-01T00:00:29.353Z,100863.25
2022-09-01T00:05:23.725Z,100891.66
2022-09-01T00:10:17.591Z,100896.72
2022-09-01T00:15:12.875Z,100840.84
2022-09-01T00:20:08.785Z,100889.16
2022-09-01T00:25:03.615Z,100830.59
2022-09-01T00:29:57.335Z,100890.34
2022-09-01T00:34:50.535Z,100846.19
2022-09-01T00:39:45.064Z,100844.59
2022-09-01T00:44:39.375Z,100840.59
2022-09-01T00:49:36.250Z,100850.94
2022-09-01T00:54:34.408Z,100874.81
2022-09-01T00:59:29.626Z,100879.19
2022-09-01T01:04:23.110Z,100887.91
2022-09-01T01:09:17.055Z,100869.66
2022-09-01T01:14:12.322Z,100883.03
2022-09-01T01:19:28.154Z,100892.38
2022-09-01T01:24:27.698Z,100763.75
2022-09-01T01:29:22.058Z,100900.63
2022-09-01T01:34:19.915Z,100871.94
2022-09-01T01:39:16.876Z,100854.78
2022-09-01T01:44:13.402Z,100898.88
2022-09-01T01:49:07.143Z,100896.47
2022-09-01T01:54:05.637Z,100875.63
2022-09-01T01:58:59.035Z,100880.81
2022-09-01T02:03:54.930Z,100770.28
2022-09-01T02:08:49.104Z,100876.81
2022-09-01T02:13:42.354Z,100922.84
2022-09-01T02:18:39.262Z,100919.69
2022-09-01T02:23:33.957Z,100797.16
2022-09-01T02:28:27.883Z,100833.56
2022-09-01T02:33:23.121Z,100907.94
2022-09-01T02:38:18.129Z,100859.25
2022-09-01T02:43:13.666Z,100935.31
2022-09-01T02:48:10.471Z,100928.88
2022-09-01T02:53:09.874Z,100898.50
2022-09-01T02:58:03.277Z,100898.50
2022-09-01T03:03:02.905Z,100886.59
2022-09-01T03:07:59.284Z,100849.75
2022-09-01T03:12:55.908Z,100904.81
2022-09-01T03:17:55.823Z,100917.38
2022-09-01T03:22:51.822Z,100937.59
2022-09-01T03:27:47.566Z,100939.13
2022-09-01T03:32:42.263Z,100847.91
2022-09-01T03:37:36.364Z,100922.63
2022-09-01T03:42:31.167Z,100883.28
2022-09-01T03:47:25.373Z,100903.66
2022-09-01T03:52:19.575Z,100943.16
2022-09-01T03:57:13.909Z,100916.88
2022-09-01T04:02:09.360Z,100942.19
2022-09-01T04:07:02.886Z,100910.28
2022-09-01T04:12:00.425Z,100935.94
2022-09-01T04:17:11.469Z,100936.63
2022-09-01T04:22:08.199Z,100778.38
2022-09-01T04:27:11.467Z,100921.91
2022-09-01T04:32:10.028Z,100945.25
2022-09-01T04:37:13.321Z,100891.31
2022-09-01T04:42:09.467Z,100945.78
2022-09-01T04:47:03.814Z,100953.44
2022-09-01T04:51:57.307Z,100899.44
2022-09-01T04:56:58.725Z,100881.41
2022-09-01T05:01:57.736Z,100942.78
2022-09-01T05:07:00.001Z,100914.31
2022-09-01T05:12:10.510Z,100950.38
2022-09-01T05:17:10.438Z,100946.59
2022-09-01T05:27:03.232Z,100912.34
2022-09-01T05:32:10.412Z,100814.09
2022-09-01T05:37:05.661Z,100922.59
2022-09-01T05:42:01.749Z,100871.09
2022-09-01T05:46:56.270Z,100887.63
2022-09-01T05:51:52.737Z,100909.59
2022-09-01T05:56:47.450Z,100938.22
2022-09-01T06:02:19.748Z,100936.19
2022-09-01T06:07:28.724Z,100827.06
2022-09-01T06:12:28.334Z,100856.78
2022-09-01T06:17:31.898Z,100854.41
2022-09-01T06:22:30.116Z,100783.81
2022-09-01T06:27:24.927Z,100961.72
2022-09-01T06:32:26.137Z,100958.28
2022-09-01T06:37:35.866Z,100779.59
2022-09-01T06:42:35.490Z,100852.28
2022-09-01T06:47:29.808Z,100858.47
2022-09-01T06:52:23.839Z,100851.22
2022-09-01T07:02:52.197Z,100976.31
2022-09-01T07:08:17.960Z,100939.09
2022-09-01T07:19:06.797Z,100915.44
2022-09-01T07:29:41.658Z,100955.63
2022-09-01T07:34:39.708Z,100955.34
2022-09-01T07:39:51.766Z,100900.22
2022-09-01T07:45:31.086Z,100958.66
2022-09-01T07:51:34.250Z,100920.75
2022-09-01T07:55:55.030Z,100745.97
2022-09-01T08:00:54.654Z,100935.59
2022-09-01T08:06:01.127Z,100934.94
2022-09-01T08:11:04.398Z,100918.78
2022-09-01T08:16:08.429Z,100873.41
2022-09-01T08:21:23.408Z,100878.06
2022-09-01T08:26:53.055Z,100815.66
2022-09-01T08:31:59.405Z,100926.50
2022-09-01T08:37:17.743Z,100816.41
2022-09-01T08:42:33.322Z,100784.25
2022-09-01T08:47:35.412Z,100857.31
2022-09-01T08:52:34.178Z,100875.50
2022-09-01T08:57:36.612Z,100814.03
2022-09-01T09:03:07.721Z,100873.22
2022-09-01T09:08:33.336Z,100897.19
2022-09-01T09:13:44.612Z,100877.00
2022-09-01T09:19:00.619Z,100817.91
2022-09-01T09:24:02.458Z,100877.84
2022-09-01T09:28:55.867Z,100853.34
2022-09-01T09:33:52.812Z,100846.19
2022-09-01T09:38:48.968Z,100803.03
2022-09-01T09:43:48.327Z,100824.31
2022-09-01T09:48:44.208Z,100862.19
2022-09-01T09:53:40.678Z,100858.59
2022-09-01T09:58:39.713Z,100776.31
2022-09-01T10:03:43.615Z,100690.22
2022-09-01T10:08:46.010Z,100833.28
2022-09-01T10:13:39.415Z,100831.06
2022-09-01T10:18:41.872Z,100811.22
2022-09-01T10:23:38.749Z,100787.41
2022-09-01T10:28:35.108Z,100762.84
2022-09-01T10:33:30.168Z,100764.28
2022-09-01T10:38:26.881Z,100809.00
2022-09-01T10:43:28.568Z,100788.34
2022-09-01T10:48:32.120Z,100780.53
2022-09-01T10:53:40.650Z,100773.38
2022-09-01T11:04:01.791Z,100760.06
2022-09-01T11:09:02.289Z,100783.66
2022-09-01T11:13:58.947Z,100669.66
2022-09-01T11:18:52.710Z,100770.28
2022-09-01T11:23:48.262Z,100694.94
2022-09-01T11:28:46.250Z,100579.22
2022-09-01T11:33:54.445Z,100751.84
2022-09-01T11:38:55.119Z,100719.56
2022-09-01T11:43:49.253Z,100733.31
2022-09-01T11:48:47.913Z,100733.78
2022-09-01T11:53:45.835Z,100732.09
2022-09-01T11:58:42.084Z,100736.69
2022-09-01T12:03:37.117Z,100730.97
2022-09-01T12:08:35.024Z,100671.13
2022-09-01T12:13:29.362Z,100724.50
2022-09-01T12:18:28.311Z,100689.28
2022-09-01T12:23:26.838Z,100711.63
2022-09-01T12:28:20.398Z,100697.88
2022-09-01T12:33:30.839Z,100690.91
2022-09-01T12:38:30.011Z,100620.31
2022-09-01T12:43:37.057Z,100652.78
2022-09-01T12:48:33.909Z,100685.91
2022-09-01T12:53:32.499Z,100613.66
2022-09-01T12:58:27.873Z,100684.69
2022-09-01T13:03:21.872Z,100657.31
2022-09-01T13:08:19.275Z,100669.00
2022-09-01T13:13:17.387Z,100669.84
2022-09-01T13:18:11.644Z,100614.13
2022-09-01T13:23:05.317Z,100632.13
2022-09-01T13:28:01.665Z,100554.25
2022-09-01T13:38:10.640Z,100657.97
2022-09-01T13:43:07.736Z,100646.75
2022-09-01T13:48:19.048Z,100594.53
2022-09-01T13:53:14.065Z,100583.13
2022-09-01T13:58:11.085Z,100627.00
2022-09-01T14:03:13.239Z,100649.94
2022-09-01T14:08:21.184Z,100544.53
2022-09-01T14:13:26.346Z,100659.50
2022-09-01T14:18:22.332Z,100630.91
2022-09-01T14:23:16.774Z,100656.16
2022-09-01T14:28:11.798Z,100628.69
2022-09-01T14:33:05.540Z,100520.81
2022-09-01T14:38:16.768Z,100514.84
2022-09-01T14:43:12.829Z,100622.59
2022-09-01T14:48:06.803Z,100604.38
2022-09-01T14:53:02.068Z,100627.06
2022-09-01T14:57:58.083Z,100590.50
2022-09-01T15:02:51.993Z,100530.13
2022-09-01T15:07:45.911Z,100638.78
2022-09-01T15:12:42.521Z,100583.31
2022-09-01T15:17:39.664Z,100632.50
2022-09-01T15:22:38.845Z,100632.06
2022-09-01T15:27:32.514Z,100555.91
2022-09-01T15:32:31.129Z,100633.75
2022-09-01T15:37:26.251Z,100616.28
2022-09-01T15:42:21.989Z,100649.09
2022-09-01T15:47:19.189Z,100635.34
2022-09-01T15:52:14.423Z,100648.03
2022-09-01T15:57:09.267Z,100558.34
2022-09-01T16:02:02.929Z,100640.06
2022-09-01T16:06:57.023Z,100622.16
2022-09-01T16:11:50.812Z,100564.03
2022-09-01T16:16:54.791Z,100618.06
2022-09-01T16:21:55.948Z,100649.16
2022-09-01T16:26:50.510Z,100461.53
2022-09-01T16:31:57.789Z,100498.78
2022-09-01T16:37:00.060Z,100559.22
2022-09-01T16:42:02.356Z,100574.94
2022-09-01T16:47:08.532Z,100508.16
2022-09-01T16:52:06.851Z,100602.59
2022-09-01T16:57:11.678Z,100644.06
2022-09-01T17:02:26.936Z,100760.75
2022-09-01T17:07:30.684Z,100749.47
2022-09-01T17:12:34.609Z,100633.50
2022-09-01T17:17:48.285Z,100808.13
2022-09-01T17:22:50.992Z,100802.84
2022-09-01T17:27:53.069Z,100785.50
2022-09-01T17:33:05.121Z,100847.44
2022-09-01T17:38:18.725Z,100863.78
2022-09-01T17:43:21.724Z,100825.00
2022-09-01T17:48:23.509Z,100879.81
2022-09-01T17:53:32.091Z,100898.72
2022-09-01T17:58:45.722Z,100887.72
2022-09-01T18:04:12.868Z,100850.31
2022-09-01T18:09:09.779Z,100820.03
2022-09-01T18:14:08.751Z,100914.91
2022-09-01T18:19:06.335Z,100868.66
2022-09-01T18:24:07.501Z,100748.81
2022-09-01T18:29:02.114Z,100892.16
2022-09-01T18:34:08.676Z,100890.16
2022-09-01T18:39:15.507Z,100753.81
2022-09-01T18:44:41.267Z,100864.91
2022-09-01T18:49:53.592Z,100658.88
2022-09-01T18:55:12.857Z,100854.94
2022-09-01T19:00:18.815Z,100783.06
2022-09-01T19:05:22.776Z,100824.97
2022-09-01T19:10:22.960Z,100658.94
2022-09-01T19:15:29.376Z,100842.44
2022-09-01T19:20:32.086Z,100823.22
2022-09-01T19:25:36.965Z,100682.34
2022-09-01T19:30:35.362Z,100785.97
2022-09-01T19:35:34.459Z,100878.38
2022-09-01T19:40:39.941Z,100810.16
2022-09-01T19:45:44.505Z,100748.19
2022-09-01T19:50:45.900Z,100891.97
2022-09-01T19:55:46.254Z,100897.59
2022-09-01T20:00:51.206Z,100902.91
2022-09-01T20:05:51.374Z,100899.44
2022-09-01T20:10:57.733Z,100904.06
2022-09-01T20:15:57.587Z,100865.72
2022-09-01T20:20:52.515Z,100903.16
2022-09-01T20:25:49.991Z,100870.59
2022-09-01T20:30:59.725Z,100791.09
2022-09-01T20:35:59.759Z,100884.72
2022-09-01T20:40:55.822Z,100898.66
2022-09-01T20:45:52.126Z,100822.00
2022-09-01T20:51:11.565Z,100836.03
2022-09-01T20:56:16.334Z,100684.31
2022-09-01T21:01:30.134Z,100929.88
2022-09-01T21:06:37.796Z,100852.91
2022-09-01T21:11:44.374Z,100884.38
2022-09-01T21:16:59.599Z,100744.19
2022-09-01T21:22:04.370Z,100717.22
2022-09-01T21:27:01.464Z,100704.84
2022-09-01T21:31:59.933Z,100732.78
2022-09-01T21:37:04.708Z,100852.09
2022-09-01T21:42:24.556Z,100818.03
2022-09-01T21:47:34.296Z,100735.97
2022-09-01T21:52:29.568Z,100709.84
2022-09-01T21:57:23.691Z,100816.88
2022-09-01T22:02:17.287Z,100695.38
2022-09-01T22:07:15.434Z,100830.63
2022-09-01T22:12:14.036Z,100924.91
2022-09-01T22:17:12.890Z,100920.13
2022-09-01T22:22:06.737Z,100921.75
2022-09-01T22:27:02.463Z,100870.94
2022-09-01T22:31:57.423Z,100892.28
2022-09-01T22:36:50.997Z,100906.19
2022-09-01T22:41:46.232Z,100920.72
2022-09-01T22:46:44.384Z,100862.50
2022-09-01T22:51:50.790Z,100885.47
2022-09-01T22:56:45.343Z,100898.19
2022-09-01T23:01:42.855Z,100900.13
2022-09-01T23:06:44.954Z,100824.75
2022-09-01T23:11:42.224Z,100827.22
2022-09-01T23:16:36.075Z,100789.19
2022-09-01T23:21:33.701Z,100881.56
2022-09-01T23:26:29.286Z,100900.91
2022-09-01T23:31:25.908Z,100870.84
2022-09-01T23:36:23.632Z,100887.06
2022-09-01T23:41:23.258Z,100885.75
2022-09-01T23:46:21.796Z,100910.22
2022-09-01T23:51:15.335Z,100911.09
2022-09-01T23:56:17.069Z,100909.59
